Time;durP1;ratioP1;P1;durP2;ratioP2;P2;SDS_P1;SDS_P2;PMS_P1;PMS_P2;Temp;Humidity;BMP_temperature;BMP_pressure;BME280_temperature;BME280_humidity;BME280_pressure;Samples;Min_cycle;Max_cycle;Signal;HPM_P1;HPM_P2
2023/07/12 00:00:38;;;;;;;;;;;;;;;27.73;100.00;99418.69;5048074;28;19924;-73
2023/07/12 00:03:03;;;;;;;;;;;;;;;27.71;100.00;99418.13;5050644;28;19921;-74
2023/07/12 00:05:29;;;;;;;;;;;;;;;27.65;100.00;99427.28;5048716;28;20007;-74
2023/07/12 00:07:55;;;;;;;;;;;;;;;27.57;100.00;99425.00;5047712;28;19989;-73
2023/07/12 00:10:26;;;;;;;;;;;;;;;27.58;100.00;99415.81;5045126;28;19924;-74
2023/07/12 00:12:51;;;;;;;;;;;;;;;27.65;100.00;99416.44;5048372;28;19920;-73
2023/07/12 00:15:19;;;;;;;;;;;;;;;27.68;100.00;99415.94;5045722;28;19978;-73
2023/07/12 00:17:45;;;;;;;;;;;;;;;27.76;100.00;99418.16;5048626;28;20427;-74
2023/07/12 00:20:29;;;;;;;;;;;;;;;27.77;100.00;99417.06;5041812;28;19917;-74
2023/07/12 00:22:56;;;;;;;;;;;;;;;27.68;100.00;99426.78;5045676;28;20422;-74
2023/07/12 00:25:23;;;;;;;;;;;;;;;27.77;100.00;99430.63;5045575;28;19917;-73
2023/07/12 00:27:49;;;;;;;;;;;;;;;27.81;100.00;99439.88;5046605;28;20360;-74
2023/07/12 00:30:19;;;;;;;;;;;;;;;27.83;100.00;99445.06;5046301;28;19920;-73
2023/07/12 00:32:47;;;;;;;;;;;;;;;27.90;100.00;99441.06;5045803;28;19920;-74
2023/07/12 00:35:15;;;;;;;;;;;;;;;27.92;100.00;99438.88;5048356;28;19923;-74
2023/07/12 00:37:40;;;;;;;;;;;;;;;27.92;100.00;99449.75;5047684;28;20377;-74
2023/07/12 00:40:14;;;;;;;;;;;;;;;27.91;100.00;99453.56;5041338;28;19924;-74
2023/07/12 00:42:43;;;;;;;;;;;;;;;27.92;100.00;99451.66;5049798;28;20376;-74
2023/07/12 00:45:10;;;;;;;;;;;;;;;27.93;100.00;99447.84;5049030;28;20380;-73
2023/07/12 00:47:35;;;;;;;;;;;;;;;27.92;100.00;99446.25;5044066;28;20377;-74
2023/07/12 00:50:01;;;;;;;;;;;;;;;27.92;100.00;99451.66;5041348;28;19970;-73
2023/07/12 00:52:29;;;;;;;;;;;;;;;27.91;100.00;99450.84;5048478;28;19925;-73
2023/07/12 00:55:03;;;;;;;;;;;;;;;27.89;100.00;99450.28;5041749;28;20442;-73
2023/07/12 00:57:29;;;;;;;;;;;;;;;27.90;100.00;99457.34;5045328;28;19917;-73
2023/07/12 01:00:00;;;;;;;;;;;;;;;27.83;100.00;99451.31;5056848;28;19929;-73
2023/07/12 01:02:27;;;;;;;;;;;;;;;27.84;100.00;99447.53;5039593;28;20365;-73
2023/07/12 01:04:55;;;;;;;;;;;;;;;27.81;100.00;99448.03;5048223;28;20007;-73
2023/07/12 01:07:22;;;;;;;;;;;;;;;27.79;100.00;99444.75;5045193;28;20353;-74
2023/07/12 01:09:47;;;;;;;;;;;;;;;27.81;100.00;99447.19;5046503;28;20377;-74
2023/07/12 01:12:13;;;;;;;;;;;;;;;27.82;100.00;99441.53;5047613;28;19917;-74
2023/07/12 01:14:39;;;;;;;;;;;;;;;27.81;100.00;99441.78;5046320;28;20007;-74
2023/07/12 01:17:06;;;;;;;;;;;;;;;27.79;100.00;99444.75;5045104;28;19932;-74
2023/07/12 01:19:32;;;;;;;;;;;;;;;27.76;100.00;99439.84;5042294;28;20320;-74
2023/07/12 01:22:00;;;;;;;;;;;;;;;27.80;100.00;99443.69;5049124;28;19924;-73
2023/07/12 01:24:27;;;;;;;;;;;;;;;27.82;100.00;99454.25;5048820;28;19929;-73
2023/07/12 01:26:57;;;;;;;;;;;;;;;27.80;100.00;99435.56;5041429;28;20368;-73
2023/07/12 01:29:23;;;;;;;;;;;;;;;27.84;100.00;99442.09;5048333;28;19921;-73
2023/07/12 01:31:49;;;;;;;;;;;;;;;27.86;100.00;99444.56;5045093;28;19923;-73
2023/07/12 01:34:15;;;;;;;;;;;;;;;27.81;100.00;99444.50;5046714;28;19979;-73
2023/07/12 01:36:41;;;;;;;;;;;;;;;27.83;100.00;99445.88;5046151;28;19916;-73
2023/07/12 01:39:07;;;;;;;;;;;;;;;27.82;100.00;99438.81;5048129;28;19962;-73
2023/07/12 01:41:32;;;;;;;;;;;;;;;27.80;100.00;99440.97;5045105;28;19916;-72
2023/07/12 01:43:58;;;;;;;;;;;;;;;27.78;100.00;99445.84;5051914;28;19916;-73
2023/07/12 01:46:24;;;;;;;;;;;;;;;27.80;100.00;99454.53;5046979;28;19917;-73
2023/07/12 01:48:49;;;;;;;;;;;;;;;27.81;100.00;99469.72;5043924;28;19929;-73
2023/07/12 01:51:16;;;;;;;;;;;;;;;27.80;100.00;99461.84;5046614;28;19927;-73
2023/07/12 01:53:42;;;;;;;;;;;;;;;27.75;100.00;99459.06;5047651;28;19916;-73
2023/07/12 01:56:07;;;;;;;;;;;;;;;27.73;100.00;99470.19;5048956;28;19939;-72
2023/07/12 01:58:33;;;;;;;;;;;;;;;27.61;100.00;99461.41;5050374;28;19920;-72
2023/07/12 02:00:58;;;;;;;;;;;;;;;27.61;100.00;99448.66;5044302;28;20399;-73
2023/07/12 02:03:25;;;;;;;;;;;;;;;27.60;100.00;99419.09;5051932;28;20406;-73
2023/07/12 02:05:50;;;;;;;;;;;;;;;27.51;100.00;99371.88;5049352;28;19978;-73
2023/07/12 02:08:18;;;;;;;;;;;;;;;27.44;100.00;99382.06;5048235;28;20312;-73
2023/07/12 02:10:45;;;;;;;;;;;;;;;27.36;100.00;99434.81;5049963;28;20241;-73
2023/07/12 02:13:10;;;;;;;;;;;;;;;27.27;100.00;99442.56;5043327;28;20019;-72
2023/07/12 02:15:38;;;;;;;;;;;;;;;27.28;100.00;99411.69;5046452;28;19923;-74
2023/07/12 02:18:05;;;;;;;;;;;;;;;27.29;100.00;99396.25;5049284;28;19917;-73
2023/07/12 02:20:30;;;;;;;;;;;;;;;27.27;100.00;99393.78;5046933;28;19917;-73
2023/07/12 02:22:56;;;;;;;;;;;;;;;27.29;100.00;99380.81;5052330;28;19920;-73
2023/07/12 02:25:21;;;;;;;;;;;;;;;27.26;100.00;99375.94;5048004;28;19967;-73
2023/07/12 02:27:47;;;;;;;;;;;;;;;27.27;100.00;99380.25;5048981;28;19917;-75
2023/07/12 02:30:23;;;;;;;;;;;;;;;27.19;100.00;99380.72;5045263;28;19917;-74
2023/07/12 02:32:49;;;;;;;;;;;;;;;27.21;100.00;99380.47;5045673;28;19968;-73
2023/07/12 02:35:15;;;;;;;;;;;;;;;27.22;100.00;99399.16;5052177;28;19971;-74
2023/07/12 02:37:40;;;;;;;;;;;;;;;27.24;100.00;99390.78;5049631;28;19959;-73
2023/07/12 02:40:09;;;;;;;;;;;;;;;27.20;100.00;99368.81;5047817;28;19967;-74
2023/07/12 02:42:34;;;;;;;;;;;;;;;27.15;100.00;99366.06;5048669;28;20333;-74
2023/07/12 02:45:00;;;;;;;;;;;;;;;27.06;100.00;99386.53;5049561;28;19964;-74
2023/07/12 02:47:25;;;;;;;;;;;;;;;27.02;100.00;99401.66;5046393;28;19970;-74
2023/07/12 02:49:51;;;;;;;17.02;4.30;;;;;;;26.96;100.00;99401.84;5050337;28;19916;-74
2023/07/12 02:52:17;;;;;;;7.53;4.38;;;;;;;26.81;100.00;99405.97;5046287;28;20064;-73
2023/07/12 02:54:43;;;;;;;11.40;4.70;;;;;;;26.72;100.00;99431.03;5048401;28;20142;-74
2023/07/12 02:57:10;;;;;;;8.52;4.93;;;;;;;26.63;100.00;99446.03;5050749;28;20036;-74
2023/07/12 02:59:36;;;;;;;;;;;;;;;26.61;100.00;99432.78;5048258;28;20037;-72
2023/07/12 03:02:03;;;;;;;;;;;;;;;26.52;100.00;99444.28;5052480;28;19917;-74
2023/07/12 03:04:28;;;;;;;;;;;;;;;26.55;100.00;99476.25;5049772;28;20038;-73
2023/07/12 03:06:54;;;;;;;;;;;;;;;26.57;100.00;99488.47;5046326;28;20019;-74
2023/07/12 03:09:19;;;;;;;;;;;;;;;26.52;100.00;99493.81;5048031;28;19925;-74
2023/07/12 03:11:45;;;;;;;;;;;;;;;26.54;100.00;99491.69;5047905;28;20006;-73
2023/07/12 03:14:11;;;;;;;;;;;;;;;26.50;100.00;99485.13;5047657;28;20335;-74
2023/07/12 03:16:37;;;;;;;;;;;;;;;26.48;100.00;99479.13;5046171;28;19916;-74
2023/07/12 03:19:02;;;;;;;;;;;;;;;26.47;100.00;99459.38;5048070;28;19916;-74
2023/07/12 03:21:27;;;;;;;;;;;;;;;26.47;100.00;99458.56;5044991;28;19917;-75
2023/07/12 03:23:53;;;;;;;;;;;;;;;26.44;100.00;99454.47;5050241;28;20372;-73
2023/07/12 03:26:18;;;;;;;;;;;;;;;26.44;100.00;99443.66;5048222;28;20403;-74
2023/07/12 03:28:44;;;;;;;;;;;;;;;26.49;100.00;99432.06;5047908;28;19940;-74
2023/07/12 03:31:11;;;;;;;;;;;;;;;26.46;100.00;99446.09;5046792;28;19920;-74
2023/07/12 03:33:36;;;;;;;;;;;;;;;26.49;100.00;99451.00;5046399;28;19924;-73
2023/07/12 03:36:03;;;;;;;;;;;;;;;26.46;100.00;99436.09;5049898;28;20335;-73
2023/07/12 03:38:30;;;;;;;;;;;;;;;26.43;100.00;99431.19;5048635;28;19955;-73
2023/07/12 03:40:56;;;;;;;;;;;;;;;26.44;100.00;99446.34;5044947;28;19924;-73
2023/07/12 03:43:23;;;;;;;;;;;;;;;26.37;100.00;99448.41;5050533;28;19916;-73
2023/07/12 03:45:48;;;;;;;;;;;;;;;26.36;100.00;99454.88;5047683;28;19946;-73
2023/07/12 03:48:14;;;;;;;;;;;;;;;26.40;100.00;99474.94;5047038;28;19917;-73
2023/07/12 03:50:44;;;;;;;;;;;;;;;26.44;100.00;99475.28;5046272;28;19923;-74
2023/07/12 03:53:09;;;;;;;;;;;;;;;26.44;100.00;99467.19;5047932;28;20288;-74
2023/07/12 03:55:41;;;;;;;;;;;;;;;26.47;100.00;99461.25;5047284;28;19921;-75
2023/07/12 03:58:08;;;;;;;;;;;;;;;26.43;100.00;99452.81;5048828;28;19917;-74
2023/07/12 04:00:33;;;;;;;;;;;;;;;26.41;100.00;99454.94;5044406;28;20293;-74
2023/07/12 04:02:59;;;;;;;;;;;;;;;26.37;100.00;99461.13;5049699;28;19921;-74
2023/07/12 04:05:24;;;;;;;;;;;;;;;26.37;100.00;99464.63;5046615;28;19921;-74
2023/07/12 04:07:51;;;;;;;;;;;;;;;26.29;100.00;99466.94;5044826;28;19925;-75
2023/07/12 04:10:16;;;;;;;;;;;;;;;26.24;100.00;99481.19;5048695;28;19917;-73
2023/07/12 04:12:42;;;;;;;;;;;;;;;26.16;100.00;99486.97;5048488;28;20012;-74
2023/07/12 04:15:07;;;;;;;;;;;;;;;26.11;100.00;99484.19;5046751;28;19977;-74
2023/07/12 04:17:33;;;;;;;;;;;;;;;26.10;100.00;99498.78;5045403;28;19921;-74
2023/07/12 04:19:58;;;;;;;;;;;;;;;26.08;100.00;99499.03;5044342;28;19928;-74
2023/07/12 04:22:24;;;;;;;;;;;;;;;25.97;100.00;99502.63;5047546;28;19916;-74
2023/07/12 04:24:50;;;;;;;;;;;;;;;25.96;100.00;99497.47;5047204;28;19932;-74
2023/07/12 04:27:15;;;;;;;;;;;;;;;25.96;100.00;99494.75;5050205;28;19921;-74
2023/07/12 04:29:41;;;;;;;;;;;;;;;25.93;100.00;99509.56;5045868;28;19917;-73
2023/07/12 04:32:07;;;;;;;;;;;;;;;25.90;100.00;99511.97;5048950;28;19916;-73
2023/07/12 04:34:32;;;;;;;;;;;;;;;25.82;100.00;99512.34;5043527;28;20282;-73
2023/07/12 04:36:57;;;;;;;;;;;;;;;25.83;100.00;99516.69;5049866;28;19916;-72
2023/07/12 04:39:23;;;;;;;;;;;;;;;25.80;100.00;99528.00;5046450;28;19956;-73
2023/07/12 04:41:48;;;;;;;;;;;;;;;25.80;100.00;99530.69;5047142;28;20058;-73
2023/07/12 04:44:14;;;;;;;;;;;;;;;25.80;100.00;99550.41;5044629;28;19927;-84
2023/07/12 04:46:39;;;;;;;;;;;;;;;25.81;100.00;99562.06;5047263;28;19956;-83
2023/07/12 04:49:04;;;;;;;;;;;;;;;25.85;100.00;99566.75;5050756;28;19925;-83
2023/07/12 04:51:30;;;;;;;;;;;;;;;25.84;100.00;99577.81;5049497;28;19924;-82
2023/07/12 04:53:55;;;;;;;;;;;;;;;25.60;100.00;99583.28;5039436;28;19916;-84
2023/07/12 04:56:21;;;;;;;;;;;;;;;25.26;100.00;99576.88;5047437;28;19987;-84
2023/07/12 04:58:46;;;;;;;;;;;;;;;25.52;100.00;99585.50;5047490;28;20022;-83
2023/07/12 05:01:13;;;;;;;;;;;;;;;25.63;100.00;99601.72;5047577;28;19932;-84
2023/07/12 05:03:38;;;;;;;;;;;;;;;25.65;100.00;99612.28;5042401;28;19923;-84
2023/07/12 05:06:04;;;;;;;;;;;;;;;25.72;100.00;99612.16;5042621;28;19925;-83
2023/07/12 05:08:29;;;;;;;;;;;;;;;25.74;100.00;99612.75;5043077;28;19917;-83
2023/07/12 05:10:58;;;;;;;;;;;;;;;25.77;100.00;99604.16;5049699;28;19924;-80
2023/07/12 05:13:24;;;;;;;;;;;;;;;25.90;100.00;99614.69;5047984;28;20337;-81
2023/07/12 05:15:51;;;;;;;;;;;;;;;25.91;100.00;99621.75;5053790;28;19960;-82
2023/07/12 05:18:16;;;;;;;;;;;;;;;25.97;100.00;99609.97;5051714;28;20573;-81
2023/07/12 05:20:42;;;;;;;;;;;;;;;26.07;100.00;99599.34;5054793;28;19916;-80
2023/07/12 05:23:07;;;;;;;;;;;;;;;26.20;100.00;99572.00;5051047;28;19917;-80
2023/07/12 05:25:32;;;;;;;;;;;;;;;26.30;100.00;99558.66;5052210;28;19921;-82
2023/07/12 05:28:00;;;;;;;;;;;;;;;26.32;100.00;99575.47;5057638;22;19979;-76
2023/07/12 05:30:26;;;;;;;;;;;;;;;26.38;100.00;99574.50;5031273;28;19967;-78
2023/07/12 05:32:51;;;;;;;;;;;;;;;26.40;100.00;99569.66;5028388;28;19960;-80
2023/07/12 05:35:16;;;;;;;;;;;;;;;26.45;100.00;99575.13;5031220;28;19917;-80
2023/07/12 05:37:42;;;;;;;;;;;;;;;26.50;100.00;99571.72;5029956;28;19917;-80
2023/07/12 05:40:09;;;;;;;;;;;;;;;26.55;100.00;99570.97;5028842;28;19962;-80
2023/07/12 05:42:40;;;;;;;;;;;;;;;26.48;100.00;99566.53;5024360;28;19925;-80
2023/07/12 05:45:05;;;;;;;;;;;;;;;26.44;100.00;99554.59;5031502;28;19917;-79
2023/07/12 05:47:30;;;;;;;;;;;;;;;26.43;100.00;99542.13;5026903;28;19917;-79
2023/07/12 05:49:56;;;;;;;;;;;;;;;26.49;100.00;99541.13;5032572;28;19971;-80
2023/07/12 05:52:22;;;;;;;;;;;;;;;26.53;100.00;99537.91;5031979;28;19917;-80
2023/07/12 05:54:47;;;;;;;;;;;;;;;26.59;100.00;99542.34;5028681;28;20304;-80
2023/07/12 05:57:12;;;;;;;;;;;;;;;26.64;100.00;99550.53;5028598;28;19923;-80
2023/07/12 05:59:38;;;;;;;;;;;;;;;26.70;100.00;99552.25;5031298;28;19917;-80
2023/07/12 06:02:03;;;;;;;;;;;;;;;26.78;100.00;99557.25;5032731;28;20336;-79
2023/07/12 06:04:28;;;;;;;;;;;;;;;26.81;100.00;99551.34;5030124;28;20000;-76
2023/07/12 06:06:54;;;;;;;;;;;;;;;26.85;100.00;99557.91;5029013;28;20344;-78
2023/07/12 06:09:19;;;;;;;;;;;;;;;26.89;100.00;99564.50;5028053;28;19926;-77
2023/07/12 06:11:44;;;;;;;;;;;;;;;26.91;100.00;99575.09;5027619;28;19921;-78
2023/07/12 06:14:10;;;;;;;;;;;;;;;26.92;100.00;99580.22;5029365;28;19925;-79
2023/07/12 06:16:35;;;;;;;;;;;;;;;26.98;100.00;99590.06;5032036;28;20432;-79
2023/07/12 06:19:00;;;;;;;;;;;;;;;27.03;100.00;99584.75;5029207;28;19925;-79
2023/07/12 06:21:26;;;;;;;;;;;;;;;27.08;100.00;99590.25;5025822;28;20262;-79
2023/07/12 06:23:51;;;;;;;;;;;;;;;27.09;100.00;99583.75;5031048;28;19921;-80
2023/07/12 06:26:16;;;;;;;;;;;;;;;27.14;100.00;99591.94;5027990;28;19987;-79
2023/07/12 06:28:42;;;;;;;;;;;;;;;27.19;100.00;99592.03;5027026;28;19924;-79
2023/07/12 06:31:07;;;;;;;;;;;;;;;27.22;100.00;99591.50;5026593;28;19917;-78
2023/07/12 06:33:32;;;;;;;;;;;;;;;27.27;100.00;99588.84;5028637;28;19928;-81
2023/07/12 06:35:58;;;;;;;;;;;;;;;27.33;100.00;99586.25;5031098;28;19916;-78
2023/07/12 06:38:23;;;;;;;;;;;;;;;27.36;100.00;99586.56;5032927;28;20380;-80
2023/07/12 06:40:48;;;;;;;;;;;;;;;27.41;100.00;99588.50;5025090;28;20000;-78
2023/07/12 06:43:14;;;;;;;;;;;;;;;27.44;100.00;99588.00;5021172;28;20425;-79
2023/07/12 06:45:43;;;;;;;;;;;;;;;27.47;100.00;99593.72;5036533;28;19940;-80
2023/07/12 06:48:08;;;;;;;;;;;;;;;27.52;100.00;99584.88;5028240;28;19924;-79
2023/07/12 06:50:33;;;;;;;;;;;;;;;27.61;100.00;99594.22;5026787;28;20285;-78
2023/07/12 06:53:00;;;;;;;;;;;;;;;27.70;100.00;99608.94;5023509;28;19956;-79
2023/07/12 06:55:25;;;;;;;;;;;;;;;27.80;100.00;99610.97;5036777;28;19956;-79
2023/07/12 06:57:50;;;;;;;;;;;;;;;27.87;100.00;99609.69;5027085;28;19975;-77
2023/07/12 07:00:16;;;;;;;;;;;;;;;27.98;100.00;99600.59;5025651;28;20361;-77
2023/07/12 07:02:41;;;;;;;;;;;;;;;28.04;100.00;99602.28;5027094;28;19917;-76
2023/07/12 07:05:06;;;;;;;;;;;;;;;28.11;100.00;99599.38;5025543;28;20328;-77
2023/07/12 07:07:33;;;;;;;;;;;;;;;28.16;100.00;99609.50;5028282;28;19928;-75
2023/07/12 07:09:58;;;;;;;;;;;;;;;28.20;100.00;99607.91;5024441;28;20246;-76
2023/07/12 07:12:23;;;;;;;;;;;;;;;28.32;100.00;99619.44;5026240;28;19917;-76
2023/07/12 07:14:49;;;;;;;;;;;;;;;28.42;100.00;99611.38;5024942;28;19967;-77
2023/07/12 07:17:14;;;;;;;;;;;;;;;28.51;100.00;99615.28;5026901;28;20276;-76
2023/07/12 07:19:39;;;;;;;;;;;;;;;28.57;100.00;99625.06;5027066;28;19979;-76
2023/07/12 07:22:06;;;;;;;;;;;;;;;28.63;100.00;99626.75;5023841;28;19964;-77
2023/07/12 07:24:31;;;;;;;;;;;;;;;28.69;100.00;99622.19;5025312;28;19924;-76
2023/07/12 07:26:56;;;;;;;;;;;;;;;28.77;100.00;99625.28;5024491;28;20286;-75
2023/07/12 07:29:21;;;;;;;;;;;;;;;28.80;100.00;99632.94;5027842;28;19917;-77
2023/07/12 07:31:47;;;;;;;;;;;;;;;28.80;100.00;99630.22;5022121;28;19925;-76
2023/07/12 07:34:13;;;;;;;;;;;;;;;28.83;100.00;99631.56;5027357;28;19924;-75
2023/07/12 07:36:38;;;;;;;;;;;;;;;28.89;100.00;99634.06;5024800;28;19913;-75
2023/07/12 07:39:04;;;;;;;;;;;;;;;28.97;100.00;99634.69;5028082;28;20388;-78
2023/07/12 07:41:30;;;;;;;;;;;;;;;29.04;100.00;99630.63;5023719;28;19917;-75
2023/07/12 07:43:55;;;;;;;;;;;;;;;29.14;100.00;99636.16;5026776;28;19920;-75
2023/07/12 07:46:22;;;;;;;;;;;;;;;29.22;100.00;99638.38;5023546;28;20053;-74
2023/07/12 07:48:48;;;;;;;;;;;;;;;29.26;100.00;99644.09;5022765;28;19970;-76
2023/07/12 07:51:13;;;;;;;;;;;;;;;29.26;100.00;99646.84;5028268;28;20011;-75
2023/07/12 07:53:39;;;;;;;;;;;;;;;29.18;100.00;99648.13;5025351;28;19917;-75
2023/07/12 07:56:04;;;;;;;;;;;;;;;29.16;100.00;99644.84;5022850;28;19935;-76
2023/07/12 07:58:30;;;;;;;;;;;;;;;29.15;100.00;99645.13;5024548;28;20324;-76
2023/07/12 08:00:55;;;;;;;;;;;;;;;29.00;100.00;99656.69;5024661;28;19920;-77
2023/07/12 08:03:20;;;;;;;;;;;;;;;29.00;100.00;99661.31;5027473;28;20024;-77
2023/07/12 08:05:46;;;;;;;;;;;;;;;28.88;100.00;99654.16;5027011;28;19978;-80
2023/07/12 08:08:12;;;;;;;;;;;;;;;28.85;100.00;99654.69;5029360;28;20435;-80
2023/07/12 08:10:38;;;;;;;;;;;;;;;28.79;100.00;99658.44;5024124;28;20270;-80
2023/07/12 08:13:03;;;;;;;;;;;;;;;28.79;100.00;99661.16;5026270;28;19923;-80
2023/07/12 08:15:28;;;;;;;;;;;;;;;28.77;100.00;99657.06;5022881;28;19961;-79
2023/07/12 08:17:54;;;;;;;;;;;;;;;28.75;100.00;99661.91;5028583;28;19917;-81
2023/07/12 08:20:20;;;;;;;;;;;;;;;28.65;100.00;99651.75;5023755;28;19921;-80
2023/07/12 08:22:45;;;;;;;;;;;;;;;28.64;100.00;99663.69;5029385;28;20374;-81
2023/07/12 08:25:11;;;;;;;;;;;;;;;28.63;100.00;99651.19;5026115;28;19917;-81
2023/07/12 08:27:37;;;;;;;;;;;;;;;28.59;100.00;99652.78;5028159;28;20377;-81
2023/07/12 08:30:02;;;;;;;;;;;;;;;28.55;100.00;99653.56;5025844;28;19917;-81
2023/07/12 08:32:29;;;;;;;;;;;;;;;28.51;100.00;99648.66;5027786;28;20020;-81
2023/07/12 08:34:56;;;;;;;;;;;;;;;28.53;100.00;99656.53;5025446;28;19924;-81
2023/07/12 08:37:22;;;;;;;;;;;;;;;28.50;100.00;99663.31;5039057;28;20428;-80
2023/07/12 08:39:49;;;;;;;;;;;;;;;28.50;100.00;99662.50;5025490;28;20061;-80
2023/07/12 08:42:18;;;;;;;;;;;;;;;28.50;100.00;99665.22;5026353;28;19917;-81
2023/07/12 08:44:43;;;;;;;;;;;;;;;28.43;100.00;99667.31;5023720;28;19917;-81
2023/07/12 08:47:13;;;;;;;;;;;;;;;28.30;100.00;99679.38;5023272;28;20398;-81
2023/07/12 08:49:39;;;;;;;;;;;;;;;28.13;100.00;99672.38;5031009;28;19917;-81
2023/07/12 08:52:11;;;;;;;;;;;;;;;28.05;100.00;99674.47;5031142;28;20273;-81
2023/07/12 08:54:36;;;;;;;;;;;;;;;27.76;100.00;99672.19;5027879;28;20369;-82
2023/07/12 08:57:14;;;;;;;;;;;;;;;27.81;100.00;99681.22;5032728;28;19927;-81
2023/07/12 08:59:40;;;;;;;;;;;;;;;27.59;100.00;99685.81;5028881;28;19963;-81
2023/07/12 09:02:15;;;;;;;;;;;;;;;27.61;100.00;99683.69;5031969;28;19924;-80
2023/07/12 09:04:40;;;;;;;;;;;;;;;27.69;100.00;99683.22;5034180;28;20007;-77
2023/07/12 09:07:07;;;;;;;;;;;;;;;27.74;100.00;99686.03;5029375;28;20337;-77
2023/07/12 09:09:36;;;;;;;;;;;;;;;27.77;100.00;99685.50;5027865;28;19979;-77
2023/07/12 09:12:04;;;;;;;;;;;;;;;27.82;100.00;99682.84;5027684;28;20288;-76
2023/07/12 09:14:33;;;;;;;;;;;;;;;27.85;100.00;99687.78;5026908;28;19924;-76
2023/07/12 09:16:59;;;;;;;;;;;;;;;27.86;100.00;99689.44;5026757;28;19968;-77
2023/07/12 09:19:27;;;;;;;;;;;;;;;27.87;100.00;99698.38;5030139;28;19917;-77
2023/07/12 09:22:00;;;;;;;;;;;;;;;27.87;100.00;99695.66;5025772;28;19913;-75
2023/07/12 09:24:28;;;;;;;;;;;;;;;27.88;100.00;99692.69;5027878;28;19918;-77
2023/07/12 09:27:13;;;;;;;;;;;;;;;27.90;100.00;99706.00;5026586;28;19960;-78
2023/07/12 09:29:39;;;;;;;;;;;;;;;27.88;100.00;99708.97;5028397;28;20000;-77
2023/07/12 09:32:15;;;;;;;;;;;;;;;27.82;100.00;99718.09;5028143;28;20012;-78
2023/07/12 09:34:41;;;;;;;;;;;;;;;27.80;100.00;99701.28;5030279;28;19943;-78
2023/07/12 09:37:22;;;;;;;;;;;;;;;27.82;100.00;99699.13;5026159;28;19921;-78
2023/07/12 09:39:55;;;;;;;;;;;;;;;27.87;100.00;99695.66;5025975;28;19959;-77
2023/07/12 09:42:20;;;;;;;;;;;;;;;27.94;100.00;99699.81;5032266;28;19925;-77
2023/07/12 09:44:47;;;;;;;;;;;;;;;27.92;100.00;99693.81;5025352;28;20383;-78
2023/07/12 09:47:15;;;;;;;;;;;;;;;28.00;100.00;99690.69;5043211;28;19924;-78
2023/07/12 09:49:47;;;;;;;;;;;;;;;28.07;100.00;99685.88;5028539;28;19921;-78
2023/07/12 09:52:38;;;;;;;;;;;;;;;28.17;100.00;99685.19;5029957;28;20293;-76
2023/07/12 09:55:10;;;;;;;;;;;;;;;28.29;100.00;99682.34;5010799;28;20354;-77
2023/07/12 09:57:46;;;;;;;;;;;;;;;28.34;100.00;99685.94;5028980;28;19917;-78
2023/07/12 10:00:14;;;;;;;;;;;;;;;28.42;100.00;99677.34;5026488;28;20369;-77
2023/07/12 10:02:56;;;;;;;;;;;;;;;28.54;100.00;99679.91;5022267;28;19967;-78
2023/07/12 10:05:21;;;;;;;;;;;;;;;28.62;100.00;99682.16;5026282;28;19932;-77
2023/07/12 10:07:51;;;;;;;;;;;;;;;28.70;100.00;99686.28;5024096;28;19979;-77
2023/07/12 10:10:32;;;;;;;;;;;;;;;28.74;100.00;99691.00;5025291;28;19918;-78
2023/07/12 10:13:05;;;;;;;;;;;;;;;28.79;100.00;99696.47;5027525;28;19974;-82
2023/07/12 10:15:33;;;;;;;;;;;;;;;28.86;100.00;99697.03;5028304;28;19917;-80
2023/07/12 10:17:58;;;;;;;;;;;;;;;28.86;100.00;99699.75;5024688;28;19922;-80
2023/07/12 10:20:24;;;;;;;;;;;;;;;28.90;100.00;99706.34;5030915;28;19971;-80
2023/07/12 10:22:49;;;;;;;;;;;;;;;28.92;100.00;99712.31;5025597;28;19971;-79
2023/07/12 10:25:14;;;;;;;;;;;;;;;28.92;100.00;99709.59;5030649;28;19917;-79
2023/07/12 10:27:46;;;;;;;;;;;;;;;28.92;100.00;99706.88;5025390;28;19924;-79
2023/07/12 10:30:16;;;;;;;;;;;;;;;28.92;100.00;99713.41;5029786;28;20383;-79
2023/07/12 10:32:45;;;;;;;;;;;;;;;28.92;100.00;99709.59;5024349;28;19946;-80
2023/07/12 10:35:17;;;;;;;;;;;;;;;28.92;100.00;99715.03;5028670;28;20344;-80
2023/07/12 10:37:50;;;;;;;;;;;;;;;28.92;100.00;99708.81;5027539;28;19913;-80
2023/07/12 10:40:17;;;;;;;;;;;;;;;28.96;100.00;99709.09;5023919;28;19920;-80
2023/07/12 10:42:50;;;;;;;;;;;;;;;28.98;100.00;99706.94;5026105;28;20261;-80
2023/07/12 10:45:19;;;;;;;;;;;;;;;29.03;100.00;99699.66;5030381;28;20004;-80
2023/07/12 10:47:47;;;;;;;;;;;;;;;29.15;100.00;99696.75;5030732;28;19913;-80
2023/07/12 10:50:23;;;;;;;;;;;;;;;29.20;100.00;99696.78;5026166;28;20033;-79
2023/07/12 10:52:59;;;;;;;;;;;;;;;29.17;100.00;99689.16;5028098;28;20352;-77
2023/07/12 10:55:44;;;;;;;;;;;;;;;29.23;100.00;99671.78;5029017;28;19924;-78
2023/07/12 10:58:14;;;;;;;;;;;;;;;29.27;100.00;99672.94;5025711;28;19993;-78
2023/07/12 11:00:51;;;;;;;;;;;;;;;29.31;100.00;99674.03;5037736;28;19924;-76
2023/07/12 11:03:17;;;;;;;;;;;;;;;29.32;100.00;99664.81;5024802;28;19941;-74
2023/07/12 11:05:44;;;;;;;;;;;;;;;29.33;100.00;99666.47;5027848;28;19917;-76
2023/07/12 11:08:28;;;;;;;;;;;;;;;29.39;100.00;99665.44;5024997;28;19925;-77
2023/07/12 11:10:53;;;;;;;;;;;;;;;29.49;100.00;99670.91;5026203;28;20075;-77
2023/07/12 11:13:19;;;;;;;;;;;;;;;29.58;100.00;99673.94;5029154;28;20029;-77
2023/07/12 11:15:49;;;;;;;;;;;;;;;29.65;100.00;99664.47;5026127;28;19917;-75
2023/07/12 11:18:22;;;;;;;;;;;;;;;29.71;100.00;99657.97;5028913;28;20436;-76
2023/07/12 11:20:58;;;;;;;;;;;;;;;29.77;100.00;99658.00;5027212;28;20006;-77
2023/07/12 11:23:24;;;;;;;;;;;;;;;29.69;100.00;99660.13;5026900;28;19949;-76
2023/07/12 11:25:49;;;;;;;;;;;;;;;29.69;100.00;99660.13;5029516;28;19963;-76
2023/07/12 11:28:20;;;;;;;;;;;;;;;29.70;100.00;99672.66;5024191;28;20289;-76
2023/07/12 11:30:46;;;;;;;;;;;;;;;29.66;100.00;99671.53;5031244;28;19917;-75
2023/07/12 11:33:17;;;;;;;;;;;;;;;29.67;100.00;99662.31;5025608;28;19925;-76
2023/07/12 11:35:45;;;;;;;;;;;;;;;29.58;100.00;99663.88;5027592;28;19917;-75
2023/07/12 11:38:13;;;;;;;;;;;;;;;29.60;100.00;99661.72;5026290;28;20369;-76
2023/07/12 11:40:40;;;;;;;;;;;;;;;29.62;100.00;99659.56;5027132;28;19921;-76
2023/07/12 11:43:23;;;;;;;;;;;;;;;29.64;100.00;99662.00;5027507;28;20012;-75
2023/07/12 11:45:56;;;;;;;;;;;;;;;29.71;100.00;99647.09;5026509;28;20326;-76
2023/07/12 11:48:22;;;;;;;;;;;;;;;29.78;100.00;99651.47;5025396;28;20068;-76
2023/07/12 11:50:49;;;;;;;;;;;;;;;29.76;100.00;99661.78;5028183;28;20270;-76
2023/07/12 11:53:15;;;;;;;;;;;;;;;29.46;100.00;99651.56;5025266;28;19923;-75
2023/07/12 11:55:40;;;;;;;;;;;;;;;29.43;100.00;99650.22;5026080;28;20408;-76
2023/07/12 11:58:16;;;;;;;;;;;;;;;29.46;100.00;99646.97;5026727;28;19961;-75
2023/07/12 12:00:41;;;;;;;;;;;;;;;29.50;100.00;99639.94;5026197;28;19921;-76
2023/07/12 12:03:06;;;;;;;;;;;;;;;29.55;100.00;99630.97;5029171;28;20325;-76
2023/07/12 12:05:34;;;;;;;;;;;;;;;29.55;100.00;99626.34;5023444;28;19917;-76
2023/07/12 12:08:01;;;;;;;;;;;;;;;29.68;100.00;99620.44;5030005;28;20020;-76
2023/07/12 12:10:27;;;;;;;;;;;;;;;29.83;100.00;99621.56;5029200;28;20003;-77
2023/07/12 12:12:53;;;;;;;;;;;;;;;29.97;100.00;99617.31;5024056;28;20292;-76
2023/07/12 12:15:23;;;;;;;;;;;;;;;30.04;100.00;99607.00;5027719;28;19917;-75
2023/07/12 12:17:50;;;;;;;;;;;;;;;30.06;100.00;99615.69;5023468;28;19971;-74
2023/07/12 12:20:23;;;;;;;;;;;;;;;30.07;100.00;99606.44;5030254;28;20369;-77
2023/07/12 12:23:04;;;;;;;;;;;;;;;30.05;100.00;99597.72;5025101;28;19921;-76
2023/07/12 12:25:29;;;;;;;;;;;;;;;30.09;100.00;99593.38;5023202;28;19971;-75
2023/07/12 12:27:55;;;;;;;;;;;;;;;30.08;100.00;99589.03;5027120;28;19921;-79
2023/07/12 12:30:24;;;;;;;;;;;;;;;30.03;100.00;99598.00;5025832;28;19921;-79
2023/07/12 12:33:01;;;;;;;;;;;;;;;29.95;100.00;99593.06;5028665;28;19917;-78
2023/07/12 12:35:26;;;;;;;;;;;;;;;29.94;100.00;99585.16;5023622;28;20404;-79